Time;durP1;ratioP1;P1;durP2;ratioP2;P2;SDS_P1;SDS_P2;PMS_P1;PMS_P2;Temp;Humidity;BMP_temperature;BMP_pressure;BME280_temperature;BME280_humidity;BME280_pressure;Samples;Min_cycle;Max_cycle;Signal;HPM_P1;HPM_P2
2024/01/28 00:01:03;;;;;;;4.87;2.20;;;;;;;3.24;88.27;97849.56;5088308;28;20213;-61
2024/01/28 00:03:31;;;;;;;3.47;2.40;;;;;;;3.17;87.06;97855.56;5087806;28;20200;-61
2024/01/28 00:05:58;;;;;;;4.03;2.23;;;;;;;3.13;86.19;97858.16;5087996;28;20204;-61
2024/01/28 00:08:25;;;;;;;2.60;2.10;;;;;;;3.17;86.46;97842.75;5088098;28;20676;-60
2024/01/28 00:10:54;;;;;;;2.57;1.93;;;;;;;3.16;86.68;97843.63;5087674;28;20250;-62
2024/01/28 00:13:24;;;;;;;2.30;1.97;;;;;;;3.27;87.09;97847.03;5087683;28;20203;-61
2024/01/28 00:15:52;;;;;;;2.70;2.00;;;;;;;3.21;87.34;97839.34;5087594;28;20220;-60
2024/01/28 00:18:20;;;;;;;2.57;2.30;;;;;;;3.28;87.30;97853.81;5087831;28;20291;-59
2024/01/28 00:20:48;;;;;;;3.20;2.30;;;;;;;3.27;87.99;97857.25;5087468;28;20499;-60
2024/01/28 00:23:15;;;;;;;2.93;1.90;;;;;;;3.15;88.71;97859.84;5068988;28;20254;-59
2024/01/28 00:25:42;;;;;;;2.90;2.00;;;;;;;3.04;90.49;97864.16;5068875;28;20631;-60
2024/01/28 00:28:09;;;;;;;5.47;1.93;;;;;;;2.37;90.80;97747.59;5087475;28;20231;-60
2024/01/28 00:30:36;;;;;;;3.13;1.83;;;;;;;3.05;90.87;97870.97;5087397;28;20196;-62
2024/01/28 00:33:03;;;;;;;2.07;1.87;;;;;;;3.12;90.97;97867.53;5087159;28;20268;-60
2024/01/28 00:35:31;;;;;;;4.47;2.00;;;;;;;3.08;91.93;97868.41;5087078;28;20211;-60
2024/01/28 00:37:59;;;;;;;2.57;2.10;;;;;;;3.02;92.02;97860.75;5087472;28;20188;-61
2024/01/28 00:40:26;;;;;;;2.50;2.30;;;;;;;3.01;92.26;97869.28;5068224;28;20273;-59
2024/01/28 00:42:53;;;;;;;3.07;2.13;;;;;;;2.93;91.55;97844.56;5087030;28;20283;-61
2024/01/28 00:45:20;;;;;;;5.00;3.10;;;;;;;2.93;91.34;97860.75;5069115;28;20292;-62
2024/01/28 00:47:47;;;;;;;2.53;2.33;;;;;;;3.05;92.14;97857.34;5087008;28;20224;-62
2024/01/28 00:50:14;;;;;;;3.70;2.50;;;;;;;2.96;91.80;97860.78;5087002;28;20201;-61
2024/01/28 00:52:41;;;;;;;3.10;2.77;;;;;;;3.00;92.63;97861.59;5068916;28;20204;-61
2024/01/28 00:55:08;;;;;;;3.83;2.70;;;;;;;3.06;92.05;97856.47;5086832;28;20205;-60
2024/01/28 00:57:35;;;;;;;3.37;2.70;;;;;;;3.08;92.10;97865.84;5086899;28;20270;-61
2024/01/28 01:00:04;;;;;;;3.70;3.03;;;;;;;3.01;91.97;97859.03;5086900;28;20256;-60
2024/01/28 01:02:31;;;;;;;3.83;2.60;;;;;;;2.99;92.36;97870.13;5086777;28;20757;-60
2024/01/28 01:04:58;;;;;;;4.20;3.20;;;;;;;3.00;91.33;97865.03;5086915;28;20294;-61
2024/01/28 01:07:26;;;;;;;3.53;3.23;;;;;;;2.94;90.97;97865.03;5086902;28;20196;-59
2024/01/28 01:09:53;;;;;;;3.93;2.77;;;;;;;3.00;90.43;97851.38;5086478;28;20197;-59
2024/01/28 01:12:20;;;;;;;3.50;3.00;;;;;;;3.01;89.33;97848.81;5086871;28;20587;-60
2024/01/28 01:14:48;;;;;;;2.73;2.30;;;;;;;3.11;82.70;97854.75;5086845;28;20248;-59
2024/01/28 01:17:15;;;;;;;4.10;2.73;;;;;;;3.12;82.96;97846.22;5086314;28;20857;-60
2024/01/28 01:19:42;;;;;;;2.67;2.47;;;;;;;3.13;82.32;97858.16;5086750;28;20249;-60
2024/01/28 01:22:09;;;;;;;6.17;2.30;;;;;;;3.20;77.76;97832.53;5086411;28;20675;-59
2024/01/28 01:24:36;;;;;;;2.90;2.40;;;;;;;3.25;78.36;97832.53;5086356;28;20241;-60
2024/01/28 01:27:04;;;;;;;3.07;2.43;;;;;;;3.31;77.97;97845.28;5086814;28;20199;-60
2024/01/28 01:29:31;;;;;;;2.47;2.20;;;;;;;3.30;78.31;97841.00;5086608;28;20200;-60
2024/01/28 01:31:58;;;;;;;4.50;2.23;;;;;;;3.27;78.22;97841.91;5068193;28;20756;-60
2024/01/28 01:34:25;;;;;;;3.07;2.40;;;;;;;3.22;78.48;97846.16;5086185;28;20297;-61
2024/01/28 01:36:53;;;;;;;2.60;2.23;;;;;;;3.20;78.19;97847.03;5086247;28;20229;-60
2024/01/28 01:39:20;;;;;;;5.30;2.57;;;;;;;3.21;77.90;97856.44;5086587;28;20725;-61
2024/01/28 01:41:47;;;;;;;2.33;1.80;;;;;;;3.24;76.71;97851.28;5086275;28;20183;-61
2024/01/28 01:44:14;;;;;;;4.17;2.07;;;;;;;3.26;77.19;97852.97;5068034;28;20209;-59
2024/01/28 01:46:44;;;;;;;2.43;1.80;;;;;;;3.30;75.62;97852.09;5086276;28;20817;-61
2024/01/28 01:49:12;;;;;;;2.13;1.90;;;;;;;3.34;75.71;97858.06;5086154;28;20209;-59
2024/01/28 01:51:40;;;;;;;3.10;2.40;;;;;;;3.26;76.25;97870.91;5085603;28;20207;-59
2024/01/28 01:54:07;;;;;;;3.33;1.90;;;;;;;3.24;76.33;97871.75;5085642;28;20189;-60
2024/01/28 01:56:35;;;;;;;2.27;1.70;;;;;;;3.23;74.71;97886.28;5067964;28;20250;-60
2024/01/28 01:59:05;;;;;;;2.83;1.80;;;;;;;3.21;73.21;97854.69;5067432;28;20258;-62
2024/01/28 02:01:34;;;;;;;2.00;1.80;;;;;;;3.36;73.55;97865.75;5085812;28;20205;-59
2024/01/28 02:04:01;;;;;;;2.40;1.90;;;;;;;3.43;73.35;97872.53;5085846;28;20745;-60
2024/01/28 02:06:29;;;;;;;2.83;1.77;;;;;;;3.32;73.71;97861.50;5085630;28;20207;-59
2024/01/28 02:08:57;;;;;;;2.43;2.00;;;;;;;3.36;74.66;97876.00;5086000;28;20251;-60
2024/01/28 02:11:24;;;;;;;2.70;2.17;;;;;;;3.29;74.81;97876.00;5086034;28;20283;-60
2024/01/28 02:13:52;;;;;;;2.53;1.87;;;;;;;3.15;75.67;97864.13;5085817;28;20807;-60
2024/01/28 02:16:19;;;;;;;4.27;2.50;;;;;;;3.20;75.31;97864.94;5085676;28;20231;-60
2024/01/28 02:18:46;;;;;;;5.03;2.10;;;;;;;3.26;75.41;97876.00;5085910;28;20583;-60
2024/01/28 02:21:14;;;;;;;2.33;1.70;;;;;;;3.29;73.80;97870.91;5085826;28;20188;-60
2024/01/28 02:23:41;;;;;;;4.03;2.13;;;;;;;3.30;75.15;97875.13;5085799;28;20325;-59
2024/01/28 02:26:08;;;;;;;4.47;1.77;;;;;;;3.33;74.71;97870.88;5085430;28;20196;-61
2024/01/28 02:28:35;;;;;;;2.20;1.97;;;;;;;3.31;74.27;97865.75;5085472;28;20212;-60
2024/01/28 02:31:02;;;;;;;3.77;2.10;;;;;;;3.36;73.10;97865.75;5085427;28;20695;-60
2024/01/28 02:33:29;;;;;;;2.40;1.80;;;;;;;3.41;73.11;97877.66;5085658;28;20223;-61
2024/01/28 02:35:56;;;;;;;2.40;1.67;;;;;;;3.39;73.46;97868.28;5085571;28;20687;-61
2024/01/28 02:38:23;;;;;;;2.97;1.80;;;;;;;3.39;72.69;97879.38;5085689;28;20208;-60
2024/01/28 02:40:52;;;;;;;3.67;1.87;;;;;;;3.39;73.33;97878.53;5085687;28;20611;-60
2024/01/28 02:43:19;;;;;;;3.17;2.00;;;;;;;3.39;73.17;97875.97;5085345;28;20196;-60
2024/01/28 02:45:46;;;;;;;1.90;1.60;;;;;;;3.44;72.94;97889.59;5085495;28;20280;-60
2024/01/28 02:48:13;;;;;;;3.33;1.57;;;;;;;3.24;72.28;97870.03;5085408;28;20739;-59
2024/01/28 02:50:40;;;;;;;2.27;1.73;;;;;;;3.41;71.64;97904.97;5085359;28;20748;-59
2024/01/28 02:53:07;;;;;;;3.47;1.80;;;;;;;3.40;72.04;97898.97;5085621;28;20189;-59
2024/01/28 02:55:36;;;;;;;2.27;2.00;;;;;;;3.36;72.87;97896.47;5085332;28;20203;-60
2024/01/28 02:58:04;;;;;;;4.33;2.00;;;;;;;3.33;73.04;97901.59;5085607;28;20220;-60
2024/01/28 03:00:31;;;;;;;3.10;1.80;;;;;;;3.32;73.40;97908.41;5085511;28;20295;-60
2024/01/28 03:02:58;;;;;;;2.07;1.87;;;;;;;3.38;72.49;97920.34;5085298;28;20203;-60
2024/01/28 03:05:25;;;;;;;2.47;1.60;;;;;;;3.46;69.41;97918.59;5088610;28;20198;-59
2024/01/28 03:07:52;;;;;;;4.03;1.70;;;;;;;3.51;69.49;97916.88;5088794;28;20273;-59
2024/01/28 03:10:19;;;;;;;4.73;1.80;;;;;;;3.51;70.22;97920.28;5088758;28;20197;-59
2024/01/28 03:12:49;;;;;;;3.47;1.80;;;;;;;3.52;70.73;97926.25;5089142;28;20206;-62
2024/01/28 03:15:18;;;;;;;1.80;1.43;;;;;;;3.51;70.58;97924.53;5054130;28;20193;-59
2024/01/28 03:17:46;;;;;;;2.50;1.43;;;;;;;3.53;70.83;97933.06;5088793;28;20311;-59
2024/01/28 03:20:16;;;;;;;3.63;2.00;;;;;;;3.38;71.29;97925.47;5088618;28;20212;-59
2024/01/28 03:22:43;;;;;;;3.20;2.33;;;;;;;3.38;71.59;97959.56;5088653;28;20630;-60
2024/01/28 03:25:12;;;;;;;3.13;2.17;;;;;;;3.40;71.51;97936.56;5088612;28;20598;-60
2024/01/28 03:27:39;;;;;;;4.73;2.17;;;;;;;3.43;71.86;97945.06;5088695;28;20265;-59
2024/01/28 03:30:08;;;;;;;6.10;3.23;;;;;;;3.41;71.85;97956.16;5088571;28;20676;-59
2024/01/28 03:32:35;;;;;;;3.00;2.00;;;;;;;3.40;72.21;97957.84;5088751;28;20255;-59
2024/01/28 03:35:04;;;;;;;3.93;2.00;;;;;;;3.30;72.41;97939.13;5088454;28;20558;-60
2024/01/28 03:38:11;;;;;;;2.93;1.77;;;;;;;3.37;72.57;97945.09;5088366;28;20296;-60
2024/01/28 03:41:32;;;;;;;2.00;1.67;;;;;;;3.33;72.41;97942.53;5087294;28;20603;-60
2024/01/28 03:44:53;;;;;;;3.47;1.97;;;;;;;3.30;72.91;97938.28;5087035;28;20192;-61
2024/01/28 03:48:14;;;;;;;4.27;1.80;;;;;;;3.30;72.71;97928.03;5086829;28;20203;-60
2024/01/28 03:51:35;;;;;;;5.13;2.00;;;;;;;3.33;72.32;97934.84;5087159;28;20680;-60
2024/01/28 03:54:55;;;;;;;4.63;2.20;;;;;;;2.89;72.06;97873.56;5087134;28;20556;-62
2024/01/28 03:57:39;;;;;;;4.93;2.47;;;;;;;3.28;72.63;97951.06;5087026;28;20249;-61
2024/01/28 04:00:07;;;;;;;3.10;2.27;;;;;;;3.15;72.38;97940.88;5070064;28;20229;-59
2024/01/28 04:02:39;;;;;;;2.37;1.80;;;;;;;3.23;72.36;97957.94;5088159;28;20210;-60
2024/01/28 04:05:06;;;;;;;4.57;2.10;;;;;;;3.21;72.06;97969.84;5087748;28;20283;-61
2024/01/28 04:07:33;;;;;;;23.20;12.63;;;;;;;3.32;70.28;97990.31;5087889;28;20197;-59
2024/01/28 04:10:01;;;;;;;3.17;1.80;;;;;;;3.42;68.59;97965.56;5087608;28;20408;-60
2024/01/28 04:12:29;;;;;;;3.20;2.70;;;;;;;3.51;68.69;97975.75;5087906;28;20192;-61
2024/01/28 04:14:56;;;;;;;3.30;1.97;;;;;;;3.49;68.09;97964.66;5087016;28;20200;-62
2024/01/28 04:17:23;;;;;;;3.17;2.30;;;;;;;3.53;69.36;97986.84;5087392;28;20216;-60
2024/01/28 04:19:51;;;;;;;5.90;3.30;;;;;;;3.48;70.01;97986.03;5087373;28;20218;-63
2024/01/28 04:22:19;;;;;;;3.07;1.97;;;;;;;3.47;70.16;97989.41;5087583;28;20197;-59
2024/01/28 04:24:46;;;;;;;2.10;1.90;;;;;;;3.32;71.09;97990.31;5087426;28;20233;-61
2024/01/28 04:27:13;;;;;;;5.17;2.27;;;;;;;3.37;70.92;97998.84;5087208;28;20293;-62
2024/01/28 04:29:44;;;;;;;3.00;1.90;;;;;;;3.39;71.46;98006.50;5087404;28;20198;-61
2024/01/28 04:32:11;;;;;;;3.63;2.03;;;;;;;3.30;71.26;97994.56;5087348;28;20237;-60
2024/01/28 04:34:38;;;;;;;2.10;1.70;;;;;;;3.40;71.29;98014.19;5087175;28;20756;-59
2024/01/28 04:37:06;;;;;;;4.33;2.33;;;;;;;3.36;71.44;98014.22;5086943;28;20278;-59
2024/01/28 04:39:36;;;;;;;3.50;2.27;;;;;;;3.35;71.36;98022.72;5087220;28;20231;-60
2024/01/28 04:42:03;;;;;;;4.47;2.00;;;;;;;3.38;71.28;98027.84;5087144;28;20219;-61
2024/01/28 04:44:30;;;;;;;5.60;2.07;;;;;;;3.38;71.40;98025.31;5068708;28;20194;-61
2024/01/28 04:46:57;;;;;;;3.97;1.80;;;;;;;3.30;72.06;98036.38;5087106;28;20648;-60
2024/01/28 04:49:24;;;;;;;4.13;1.97;;;;;;;3.22;71.79;98027.88;5086909;28;20238;-60
2024/01/28 04:51:52;;;;;;;2.50;2.00;;;;;;;3.28;71.91;98042.34;5086880;28;20254;-60
2024/01/28 04:54:19;;;;;;;6.23;2.07;;;;;;;3.27;72.25;98049.22;5087182;28;20189;-62
2024/01/28 04:56:46;;;;;;;3.37;2.50;;;;;;;3.20;72.25;98044.94;5086921;28;20312;-61
2024/01/28 04:59:13;;;;;;;3.43;2.10;;;;;;;3.19;72.35;98042.38;5087051;28;20216;-62
2024/01/28 05:01:41;;;;;;;3.03;2.43;;;;;;;3.13;72.37;98033.00;5068512;28;20291;-60
2024/01/28 05:04:08;;;;;;;5.53;3.33;;;;;;;3.15;72.56;98048.38;5068254;28;20188;-63
2024/01/28 05:06:35;;;;;;;6.63;3.37;;;;;;;3.23;72.73;98055.19;5086617;28;20188;-60
2024/01/28 05:09:08;;;;;;;4.47;3.40;;;;;;;3.17;72.70;98056.91;5086629;28;20201;-62
2024/01/28 05:11:35;;;;;;;7.07;3.07;;;;;;;3.19;73.27;98071.38;5086832;28;20196;-59
2024/01/28 05:14:04;;;;;;;4.33;2.73;;;;;;;3.04;73.28;98055.19;5086863;28;20201;-63
2024/01/28 05:16:31;;;;;;;4.57;2.60;;;;;;;3.09;73.30;98067.09;5086670;28;20975;-62
2024/01/28 05:18:59;;;;;;;5.07;2.83;;;;;;;3.13;74.13;98080.78;5086450;28;20679;-59
2024/01/28 05:21:26;;;;;;;3.57;2.30;;;;;;;3.11;73.82;98080.75;5086608;28;20357;-62
2024/01/28 05:23:53;;;;;;;5.37;3.10;;;;;;;2.89;74.38;98053.47;5086353;28;20244;-61
2024/01/28 05:26:20;;;;;;;4.30;2.73;;;;;;;3.13;74.25;98091.84;5086130;28;20255;-63
2024/01/28 05:28:48;;;;;;;6.20;4.40;;;;;;;3.09;73.77;98085.03;5086481;28;20200;-60
2024/01/28 05:31:15;;;;;;;3.17;2.87;;;;;;;3.13;73.99;98091.00;5086291;28;20315;-63
2024/01/28 05:33:42;;;;;;;3.50;2.43;;;;;;;3.14;73.77;98091.00;5086114;28;20274;-61
2024/01/28 05:36:13;;;;;;;4.30;2.73;;;;;;;3.17;73.71;98101.22;5086245;28;20496;-59
2024/01/28 05:38:42;;;;;;;4.77;3.33;;;;;;;3.19;74.36;98104.63;5086256;28;20232;-59
2024/01/28 05:41:09;;;;;;;5.13;3.23;;;;;;;3.08;74.22;98096.13;5086250;28;20289;-61
2024/01/28 05:43:36;;;;;;;6.03;3.43;;;;;;;3.13;73.80;98088.47;5086156;28;20196;-62
2024/01/28 05:46:04;;;;;;;8.23;3.73;;;;;;;3.26;73.99;98106.34;5086215;28;20522;-60
2024/01/28 05:48:33;;;;;;;7.10;3.23;;;;;;;3.30;73.30;98123.41;5085062;28;20204;-61
2024/01/28 05:51:00;;;;;;;5.47;4.10;;;;;;;3.28;73.23;98117.44;5086067;28;20186;-62
2024/01/28 05:53:27;;;;;;;5.53;3.40;;;;;;;3.34;73.70;98128.56;5085989;28;20246;-62
2024/01/28 05:55:54;;;;;;;6.40;3.67;;;;;;;3.34;74.12;98118.31;5067806;28;20204;-63
2024/01/28 05:58:22;;;;;;;4.73;3.47;;;;;;;3.46;73.40;98118.31;5085910;28;20240;-61
2024/01/28 06:00:50;;;;;;;7.00;4.63;;;;;;;3.40;71.92;98108.06;5085584;28;20667;-62
2024/01/28 06:03:17;;;;;;;5.70;3.93;;;;;;;3.44;72.62;98120.00;5086331;28;20192;-62
2024/01/28 06:05:44;;;;;;;5.77;3.87;;;;;;;3.49;72.14;98116.59;5086188;28;20519;-62
2024/01/28 06:08:13;;;;;;;5.93;3.77;;;;;;;3.48;72.21;98111.47;5085944;28;20867;-62
2024/01/28 06:10:40;;;;;;;7.03;4.40;;;;;;;3.42;72.37;98086.72;5085956;28;20257;-61
2024/01/28 06:13:07;;;;;;;5.53;3.53;;;;;;;3.52;72.30;98108.06;5085572;28;20203;-60
2024/01/28 06:15:35;;;;;;;5.03;3.60;;;;;;;3.57;73.05;98108.88;5067488;28;20612;-61
2024/01/28 06:18:02;;;;;;;6.87;3.90;;;;;;;3.61;71.84;98108.88;5085735;28;20339;-61
2024/01/28 06:20:31;;;;;;;4.87;3.50;;;;;;;3.66;71.21;98101.19;5086137;28;20653;-62
2024/01/28 06:22:58;;;;;;;4.50;2.80;;;;;;;3.71;69.97;98102.88;5085603;28;20231;-62
2024/01/28 06:25:25;;;;;;;5.20;3.10;;;;;;;3.76;70.55;98102.88;5085783;28;20204;-62
2024/01/28 06:27:52;;;;;;;4.63;3.07;;;;;;;3.86;70.20;98104.56;5085827;28;20255;-61
2024/01/28 06:30:19;;;;;;;3.50;3.00;;;;;;;3.74;68.84;98079.84;5085602;28;20222;-60
2024/01/28 06:32:46;;;;;;;6.77;3.30;;;;;;;3.92;69.19;98094.28;5085645;28;20410;-61
2024/01/28 06:35:13;;;;;;;6.77;4.00;;;;;;;3.88;69.01;98097.72;5085925;28;20198;-62
2024/01/28 06:37:40;;;;;;;4.90;3.60;;;;;;;3.87;69.08;98101.16;5085534;28;20230;-61
2024/01/28 06:40:08;;;;;;;6.83;4.20;;;;;;;3.90;69.40;98096.88;5089231;28;20271;-59
2024/01/28 06:42:35;;;;;;;7.90;4.87;;;;;;;3.92;68.86;98109.66;5089591;28;20239;-60
2024/01/28 06:45:02;;;;;;;7.17;4.20;;;;;;;3.87;69.38;98106.28;5071487;28;20255;-59
2024/01/28 06:47:30;;;;;;;7.53;4.03;;;;;;;3.90;67.96;98101.13;5089356;28;20232;-59
2024/01/28 06:49:57;;;;;;;5.47;3.83;;;;;;;3.84;68.28;98081.53;5089152;28;20189;-58
2024/01/28 06:52:24;;;;;;;6.23;3.70;;;;;;;4.11;67.88;98107.06;5089719;28;20199;-60
2024/01/28 06:54:51;;;;;;;4.60;3.53;;;;;;;4.19;68.04;98111.28;5089200;28;20201;-60
2024/01/28 06:57:21;;;;;;;5.83;3.77;;;;;;;4.31;67.66;98114.66;5089010;28;20954;-60
2024/01/28 06:59:48;;;;;;;2.93;2.50;;;;;;;4.42;65.46;98105.22;5089322;28;20619;-60
2024/01/28 07:02:16;;;;;;;4.80;2.30;;;;;;;4.55;64.99;98111.16;5089526;28;20283;-61
2024/01/28 07:04:43;;;;;;;4.70;3.00;;;;;;;4.61;65.64;98114.56;5089549;28;20202;-60
2024/01/28 07:07:10;;;;;;;2.53;1.90;;;;;;;4.73;63.52;98124.75;5088264;28;20210;-62
2024/01/28 07:09:38;;;;;;;2.83;2.20;;;;;;;4.89;64.00;98128.91;5086094;28;20271;-61
2024/01/28 07:12:06;;;;;;;3.67;2.20;;;;;;;4.50;64.74;98085.53;5088896;28;20198;-60
2024/01/28 07:14:34;;;;;;;2.00;1.60;;;;;;;4.77;63.86;98134.13;5088819;28;20210;-61
2024/01/28 07:17:01;;;;;;;3.30;1.87;;;;;;;4.84;63.50;98132.38;5088874;28;20591;-62
2024/01/28 07:19:29;;;;;;;2.87;2.10;;;;;;;4.86;64.05;98136.63;5088972;28;20646;-61
2024/01/28 07:21:56;;;;;;;3.80;1.70;;;;;;;4.86;63.06;98130.66;5088573;28;20220;-62
2024/01/28 07:24:23;;;;;;;3.40;2.00;;;;;;;4.85;63.88;98122.09;5088146;28;20235;-64
2024/01/28 07:26:50;;;;;;;2.97;1.90;;;;;;;4.97;64.55;98134.84;5069838;28;20205;-62
2024/01/28 07:29:18;;;;;;;4.23;2.30;;;;;;;5.02;63.42;98134.81;5087533;28;20647;-61
2024/01/28 07:31:45;;;;;;;3.43;2.40;;;;;;;5.01;63.87;98124.56;5085450;28;20281;-63
2024/01/28 07:34:18;;;;;;;4.33;1.80;;;;;;;5.14;63.41;98147.56;5088538;28;20254;-65
2024/01/28 07:36:51;;;;;;;3.10;2.00;;;;;;;5.21;63.03;98140.69;5081517;28;20406;-61
2024/01/28 07:39:32;;;;;;;5.67;2.27;;;;;;;5.30;63.19;98149.16;5085474;28;20205;-60
2024/01/28 07:42:13;;;;;;;3.83;1.97;;;;;;;5.23;62.47;98126.97;5087473;28;20249;-62
2024/01/28 07:44:54;;;;;;;3.40;2.00;;;;;;;5.23;63.13;98146.66;5068759;28;20194;-62
2024/01/28 07:47:36;;;;;;;3.93;1.50;;;;;;;5.07;63.08;98151.03;5087544;28;20194;-64
2024/01/28 07:50:18;;;;;;;2.00;1.77;;;;;;;4.83;63.79;98128.09;5067961;28;20729;-61
2024/01/28 07:52:58;;;;;;;1.50;1.27;;;;;;;5.05;60.08;98146.78;5087089;28;20199;-61
2024/01/28 07:55:39;;;;;;;3.03;2.10;;;;;;;5.12;62.32;98146.72;5086687;28;20189;-62
2024/01/28 07:58:20;;;;;;;2.53;2.10;;;;;;;5.13;63.59;98152.72;5087329;28;20686;-62
2024/01/28 08:01:01;;;;;;;4.20;2.60;;;;;;;4.96;63.72;98147.69;5087212;28;20226;-62
2024/01/28 08:03:42;;;;;;;5.27;2.30;;;;;;;4.85;63.15;98122.09;5086664;28;20190;-62
2024/01/28 08:06:23;;;;;;;6.53;2.53;;;;;;;4.93;63.86;98148.56;5086512;28;20183;-62
2024/01/28 08:09:06;;;;;;;5.53;3.50;;;;;;;4.91;63.23;98137.47;5086681;28;20277;-61
2024/01/28 08:11:47;;;;;;;2.93;2.00;;;;;;;5.05;63.47;98150.19;5086962;28;20189;-61
2024/01/28 08:14:28;;;;;;;3.40;2.73;;;;;;;5.09;64.28;98133.06;5086616;28;20220;-62
2024/01/28 08:17:09;;;;;;;3.57;2.57;;;;;;;5.29;63.11;98156.91;5086595;28;20183;-59
2024/01/28 08:19:52;;;;;;;4.67;2.37;;;;;;;5.33;63.87;98148.31;5087164;28;20197;-59
2024/01/28 08:22:33;;;;;;;2.17;1.97;;;;;;;5.02;63.77;98122.00;5086745;28;20188;-61
2024/01/28 08:25:14;;;;;;;2.47;2.00;;;;;;;5.20;63.38;98144.09;5086754;28;20193;-60
2024/01/28 08:27:56;;;;;;;3.57;2.07;;;;;;;5.27;64.01;98149.22;5086378;28;20744;-61
2024/01/28 08:30:37;;;;;;;5.00;3.07;;;;;;;5.45;65.16;98151.63;5086112;28;20213;-60
2024/01/28 08:33:18;;;;;;;2.80;1.87;;;;;;;5.61;61.10;98154.91;5068031;28;21203;-60
2024/01/28 08:36:38;;;;;;;2.13;1.70;;;;;;;5.85;60.60;98159.88;5085828;28;20196;-61
2024/01/28 08:39:20;;;;;;;4.77;2.20;;;;;;;5.85;61.95;98164.16;5085668;28;20237;-60
2024/01/28 08:41:47;;;;;;;2.77;1.67;;;;;;;5.85;61.81;98169.31;5069124;28;20720;-60
2024/01/28 08:44:15;;;;;;;2.63;1.60;;;;;;;5.81;59.93;98168.47;5086730;28;20262;-60
2024/01/28 08:46:42;;;;;;;4.57;2.20;;;;;;;5.80;61.85;98171.88;5068239;28;20258;-61
2024/01/28 08:49:09;;;;;;;4.03;2.30;;;;;;;5.70;62.17;98177.97;5086678;28;20199;-62
2024/01/28 08:51:36;;;;;;;4.10;2.33;;;;;;;5.86;62.19;98181.28;5086734;28;20652;-61
2024/01/28 08:54:05;;;;;;;2.83;1.60;;;;;;;5.84;58.93;98172.72;5068245;28;20246;-60
2024/01/28 08:56:32;;;;;;;3.43;2.17;;;;;;;5.89;57.84;98176.13;5085915;28;20228;-61
2024/01/28 08:58:59;;;;;;;8.40;1.90;;;;;;;5.95;57.71;98184.66;5085951;28;20335;-60
2024/01/28 09:01:26;;;;;;;5.07;2.90;;;;;;;5.97;58.57;98159.78;5085823;28;20698;-60
2024/01/28 09:03:54;;;;;;;5.30;2.23;;;;;;;6.09;58.92;98169.94;5068324;28;20747;-60
2024/01/28 09:06:21;;;;;;;3.83;2.20;;;;;;;5.94;58.63;98175.22;5086240;28;20285;-61
2024/01/28 09:08:48;;;;;;;5.17;2.10;;;;;;;6.13;59.05;98175.88;5086722;28;20194;-61
2024/01/28 09:11:15;;;;;;;2.37;2.00;;;;;;;6.26;57.79;98182.63;5086164;28;20802;-60
2024/01/28 09:13:42;;;;;;;2.63;1.83;;;;;;;6.20;58.24;98173.22;5086384;28;20683;-62
2024/01/28 09:16:12;;;;;;;2.07;1.80;;;;;;;5.72;58.01;98119.72;5086429;28;20204;-61
2024/01/28 09:18:42;;;;;;;2.63;1.63;;;;;;;6.11;57.53;98181.06;5086479;28;20328;-61
2024/01/28 09:21:09;;;;;;;1.80;1.47;;;;;;;6.04;56.17;98174.25;5086691;28;20208;-62
2024/01/28 09:23:37;;;;;;;2.73;1.50;;;;;;;6.26;56.46;98183.47;5086227;28;20677;-65
2024/01/28 09:26:05;;;;;;;2.63;1.40;;;;;;;6.29;56.19;98182.56;5086717;28;20258;-62
2024/01/28 09:28:32;;;;;;;2.87;1.60;;;;;;;6.43;54.97;98178.97;5086262;28;20205;-62
2024/01/28 09:31:00;;;;;;;1.47;1.30;;;;;;;6.45;55.11;98178.97;5086035;28;20221;-62
2024/01/28 09:33:27;;;;;;;2.37;1.50;;;;;;;6.42;54.47;98182.44;5085743;28;20874;-63
2024/01/28 09:35:55;;;;;;;2.47;1.30;;;;;;;6.20;55.39;98138.97;5085867;28;20198;-63
2024/01/28 09:38:22;;;;;;;3.47;1.40;;;;;;;6.45;55.56;98186.69;5067841;28;20269;-61
2024/01/28 09:40:50;;;;;;;6.10;2.80;;;;;;;6.42;55.60;98190.16;5085519;28;20191;-60
2024/01/28 09:43:30;;;;;;;3.97;1.40;;;;;;;6.24;55.16;98174.94;5086580;28;20220;-60
2024/01/28 09:45:58;;;;;;;3.17;2.00;;;;;;;6.13;56.74;98161.31;5067502;28;20202;-63
2024/01/28 09:48:26;;;;;;;2.70;1.43;;;;;;;5.95;55.75;98165.78;5085912;28;20295;-61
2024/01/28 09:50:54;;;;;;;2.37;1.43;;;;;;;5.90;57.72;98178.69;5085651;28;20207;-63
2024/01/28 09:53:22;;;;;;;2.23;1.60;;;;;;;6.03;53.84;98172.56;5085774;28;20258;-61
2024/01/28 09:55:49;;;;;;;1.87;1.53;;;;;;;5.95;54.90;98188.94;5085847;28;20210;-61
2024/01/28 09:58:17;;;;;;;3.63;1.43;;;;;;;5.94;55.21;98153.78;5085388;28;20224;-61
2024/01/28 10:00:44;;;;;;;2.13;1.70;;;;;;;6.20;54.94;98152.66;5085680;28;20198;-61
2024/01/28 10:03:11;;;;;;;1.83;1.20;;;;;;;6.51;53.01;98169.44;5085639;28;20258;-62
2024/01/28 10:05:38;;;;;;;2.23;1.40;;;;;;;6.46;53.76;98186.69;5085397;28;20304;-61
2024/01/28 10:08:05;;;;;;;1.97;1.63;;;;;;;6.38;54.14;98167.91;5085390;28;20208;-61
2024/01/28 10:10:34;;;;;;;4.83;1.80;;;;;;;6.44;53.97;98175.56;5067208;28;20235;-62
2024/01/28 10:13:04;;;;;;;3.13;1.30;;;;;;;6.36;52.87;98182.50;5085996;28;20701;-65
2024/01/28 10:15:31;;;;;;;1.30;1.20;;;;;;;6.19;52.25;98165.53;5089738;28;20196;-63
2024/01/28 10:17:58;;;;;;;1.50;1.40;;;;;;;6.12;52.27;98195.59;5089903;28;20224;-63
2024/01/28 10:20:28;;;;;;;2.30;1.40;;;;;;;5.87;53.84;98142.72;5089523;28;20210;-61
2024/01/28 10:22:55;;;;;;;1.20;1.10;;;;;;;6.09;53.57;98181.94;5089458;28;20260;-61
2024/01/28 10:25:22;;;;;;;2.03;1.60;;;;;;;6.10;54.83;98175.94;5089710;28;20795;-60
2024/01/28 10:27:50;;;;;;;3.30;1.90;;;;;;;6.29;55.20;98188.56;5089230;28;20180;-60
2024/01/28 10:30:18;;;;;;;4.27;2.10;;;;;;;6.30;55.42;98174.84;5089518;28;20227;-62
2024/01/28 10:33:26;;;;;;;1.70;1.60;;;;;;;6.35;55.62;98178.22;5089314;28;20632;-61
2024/01/28 10:36:47;;;;;;;4.47;2.40;;;;;;;6.37;53.93;98179.03;5088315;28;20191;-60
2024/01/28 10:40:08;;;;;;;3.73;1.70;;;;;;;6.20;55.92;98182.69;5087938;28;20616;-63
2024/01/28 10:43:29;;;;;;;2.87;1.90;;;;;;;6.03;55.59;98171.69;5088170;28;20606;-64
2024/01/28 10:46:55;;;;;;;1.67;1.40;;;;;;;6.25;56.66;98222.91;5088204;28;20192;-63
2024/01/28 10:50:17;;;;;;;2.20;1.70;;;;;;;6.31;54.88;98186.84;5087841;28;20675;-61
2024/01/28 10:53:38;;;;;;;4.57;2.30;;;;;;;6.69;57.45;98185.53;5085895;28;20323;-62
2024/01/28 10:56:58;;;;;;;1.60;1.50;;;;;;;6.39;57.30;98190.16;5087991;28;20655;-62
2024/01/28 11:00:22;;;;;;;2.07;1.77;;;;;;;6.44;56.42;98191.00;5087979;28;20342;-62
2024/01/28 11:03:42;;;;;;;3.97;1.50;;;;;;;6.46;56.90;98196.97;5069718;28;20190;-64
2024/01/28 11:06:29;;;;;;;1.80;1.23;;;;;;;6.41;55.65;98198.72;5087375;28;20194;-61
2024/01/28 11:08:58;;;;;;;2.80;1.50;;;;;;;6.14;54.98;98191.28;5070702;28;20198;-60
2024/01/28 11:11:32;;;;;;;1.57;1.40;;;;;;;5.87;55.04;98188.13;5088890;28;20199;-60
2024/01/28 11:14:07;;;;;;;3.00;1.37;;;;;;;5.86;56.40;98207.84;5089516;28;20265;-62
2024/01/28 11:16:36;;;;;;;2.83;1.37;;;;;;;5.83;56.21;98202.72;5088408;28;20204;-61
2024/01/28 11:19:06;;;;;;;3.43;1.63;;;;;;;5.75;57.20;98209.59;5070251;28;20263;-62
2024/01/28 11:21:34;;;;;;;3.40;1.70;;;;;;;5.81;56.15;98207.03;5087908;28;20331;-60
2024/01/28 11:24:08;;;;;;;1.70;1.60;;;;;;;5.74;57.19;98218.19;5087961;28;20223;-60
2024/01/28 11:27:15;;;;;;;1.67;1.23;;;;;;;5.89;57.27;98209.53;5069990;28;20189;-61
2024/01/28 11:30:39;;;;;;;2.70;1.40;;;;;;;5.75;56.21;98197.63;5087527;28;20190;-62
2024/01/28 11:34:00;;;;;;;3.30;1.73;;;;;;;5.59;56.47;98228.59;5086895;28;20694;-60
2024/01/28 11:37:24;;;;;;;3.97;2.20;;;;;;;5.77;56.38;98210.44;5087604;28;20935;-60
2024/01/28 11:40:48;;;;;;;2.30;1.50;;;;;;;6.02;55.96;98191.41;5086617;28;20196;-61
2024/01/28 11:44:09;;;;;;;4.07;1.60;;;;;;;6.13;55.48;98188.75;5087289;28;20195;-60
2024/01/28 11:46:52;;;;;;;1.80;1.40;;;;;;;6.37;54.78;98204.78;5087343;28;20632;-60
2024/01/28 11:49:22;;;;;;;2.20;1.50;;;;;;;6.29;54.14;98178.28;5088467;28;20198;-62
2024/01/28 11:51:49;;;;;;;3.93;2.20;;;;;;;6.26;54.17;98198.91;5087868;28;20199;-60
2024/01/28 11:54:16;;;;;;;6.63;3.47;;;;;;;6.34;53.76;98197.09;5088179;28;20227;-64
2024/01/28 11:56:44;;;;;;;4.10;2.37;;;;;;;6.42;53.65;98185.00;5087558;28;20213;-62
2024/01/28 11:59:11;;;;;;;2.93;2.20;;;;;;;6.43;53.60;98180.69;5087586;28;20238;-62
2024/01/28 12:01:38;;;;;;;6.87;2.10;;;;;;;6.47;53.99;98187.53;5087297;28;20276;-62
2024/01/28 12:04:09;;;;;;;3.50;1.50;;;;;;;6.37;53.46;98183.34;5087699;28;20204;-61
2024/01/28 12:06:37;;;;;;;1.30;1.20;;;;;;;6.35;54.41;98188.50;5087353;28;20242;-60
2024/01/28 12:09:04;;;;;;;2.17;1.40;;;;;;;6.17;55.24;98180.97;5068761;28;20252;-60